createdAt,value
2019-01-04T00:01:23.702Z,101954.91
2019-01-04T00:03:53.948Z,101940.80
2019-01-04T00:06:24.065Z,101934.70
2019-01-04T00:08:54.578Z,101925.72
2019-01-04T00:11:24.678Z,101930.60
2019-01-04T00:13:55.327Z,101927.98
2019-01-04T00:16:25.428Z,101927.86
2019-01-04T00:18:55.575Z,101919.14
2019-01-04T00:21:25.661Z,101914.63
2019-01-04T00:23:56.108Z,101913.42
2019-01-04T00:26:26.328Z,101916.49
2019-01-04T00:28:56.729Z,101915.73
2019-01-04T00:31:26.827Z,101922.08
2019-01-04T00:33:57.300Z,101918.20
2019-01-04T00:36:27.397Z,101924.78
2019-01-04T00:38:57.862Z,101916.91
2019-01-04T00:41:27.965Z,101912.08
2019-01-04T00:43:58.394Z,101899.32
2019-01-04T00:46:28.553Z,101899.88
2019-01-04T00:48:59.421Z,101902.53
2019-01-04T00:51:29.527Z,101898.34
2019-01-04T00:53:59.993Z,101895.56
2019-01-04T00:57:01.834Z,101889.70
2019-01-04T01:00:08.456Z,101889.59
2019-01-04T01:03:18.261Z,101883.22
2019-01-04T01:06:32.244Z,101868.88
2019-01-04T01:09:43.358Z,101861.71
2019-01-04T01:13:04.637Z,101853.58
2019-01-04T01:16:06.188Z,101842.84
2019-01-04T01:19:21.251Z,101849.63
2019-01-04T01:22:16.105Z,101847.52
2019-01-04T01:25:35.273Z,101841.20
2019-01-04T01:28:41.090Z,101840.31
2019-01-04T01:31:53.976Z,101846.48
2019-01-04T01:35:03.329Z,101844.70
2019-01-04T01:38:16.216Z,101841.64
2019-01-04T01:41:35.470Z,101835.12
2019-01-04T01:44:37.781Z,101835.30
2019-01-04T01:47:36.979Z,101829.22
2019-01-04T01:50:45.445Z,101828.94
2019-01-04T01:53:15.539Z,101834.84
2019-01-04T01:55:46.286Z,101836.61
2019-01-04T01:58:16.395Z,101827.70
2019-01-04T02:00:46.931Z,101814.86
2019-01-04T02:03:17.400Z,101808.62
2019-01-04T02:05:47.891Z,101801.52
2019-01-04T02:08:17.999Z,101797.51
2019-01-04T02:10:48.640Z,101793.47
2019-01-04T02:13:18.568Z,101774.63
2019-01-04T02:15:50.165Z,101775.78
2019-01-04T02:18:20.286Z,101765.16
2019-01-04T02:20:50.749Z,101759.86
2019-01-04T02:23:20.844Z,101758.66
2019-01-04T02:25:51.301Z,101765.50
2019-01-04T02:28:21.416Z,101768.75
2019-01-04T02:30:51.562Z,101758.41
2019-01-04T02:33:21.738Z,101757.02
2019-01-04T02:35:52.144Z,101748.61
2019-01-04T02:38:22.265Z,101737.03
2019-01-04T02:40:52.518Z,101725.44
2019-01-04T02:43:22.648Z,101725.22
2019-01-04T02:45:52.783Z,101734.47
2019-01-04T02:48:24.510Z,101720.72
2019-01-04T02:50:54.915Z,101713.28
2019-01-04T02:53:25.046Z,101722.89
2019-01-04T02:55:55.208Z,101713.08
2019-01-04T02:58:25.329Z,101710.27
2019-01-04T03:00:55.540Z,101717.66
2019-01-04T03:03:25.642Z,101705.86
2019-01-04T03:05:55.797Z,101705.68
2019-01-04T03:08:25.927Z,101693.24
2019-01-04T03:10:57.218Z,101695.97
2019-01-04T03:13:27.320Z,101692.86
2019-01-04T03:15:58.595Z,101680.39
2019-01-04T03:18:29.679Z,101667.12
2019-01-04T03:20:59.828Z,101674.20
2019-01-04T03:23:29.949Z,101669.35
2019-01-04T03:26:00.415Z,101660.67
2019-01-04T03:28:30.506Z,101657.33
2019-01-04T03:31:00.955Z,101652.89
2019-01-04T03:33:31.061Z,101641.39
2019-01-04T03:36:01.516Z,101636.05
2019-01-04T03:38:31.969Z,101629.82
2019-01-04T03:41:02.331Z,101631.23
2019-01-04T03:43:32.449Z,101622.43
2019-01-04T03:46:02.575Z,101623.34
2019-01-04T03:48:32.681Z,101614.55
2019-01-04T03:51:03.246Z,101614.58
2019-01-04T03:53:33.504Z,101601.80
2019-01-04T03:56:03.635Z,101597.41
2019-01-04T03:58:33.754Z,101585.13
2019-01-04T04:01:05.773Z,101589.52
2019-01-04T04:03:35.901Z,101592.38
2019-01-04T04:06:07.401Z,101596.39
2019-01-04T04:08:37.531Z,101604.85
2019-01-04T04:11:07.868Z,101601.97
2019-01-04T04:13:37.949Z,101595.60
2019-01-04T04:16:08.081Z,101592.53
2019-01-04T04:18:38.189Z,101589.84
2019-01-04T04:21:08.660Z,101589.37
2019-01-04T04:23:38.855Z,101574.30
2019-01-04T04:26:09.306Z,101569.52
2019-01-04T04:28:39.420Z,101567.12
2019-01-04T04:31:09.989Z,101565.95
2019-01-04T04:33:40.090Z,101559.25
2019-01-04T04:36:10.233Z,101553.94
2019-01-04T04:38:40.331Z,101567.84
2019-01-04T04:41:10.866Z,101554.12
2019-01-04T04:43:40.977Z,101554.58
2019-01-04T04:46:11.249Z,101549.47
2019-01-04T04:48:41.363Z,101537.28
2019-01-04T04:51:11.489Z,101537.74
2019-01-04T04:53:41.587Z,101533.19
2019-01-04T04:56:12.601Z,101531.69
2019-01-04T04:58:42.728Z,101527.79
2019-01-04T05:01:13.257Z,101527.25
2019-01-04T05:03:43.363Z,101531.11
2019-01-04T05:06:13.515Z,101518.05
2019-01-04T05:08:43.621Z,101516.67
2019-01-04T05:11:14.240Z,101516.34
2019-01-04T05:13:44.365Z,101522.40
2019-01-04T05:16:14.869Z,101519.28
2019-01-04T05:18:45.021Z,101508.63
2019-01-04T05:21:15.519Z,101511.20
2019-01-04T05:23:45.668Z,101509.28
2019-01-04T05:26:17.259Z,101512.30
2019-01-04T05:28:47.371Z,101495.69
2019-01-04T05:31:17.832Z,101492.11
2019-01-04T05:33:47.929Z,101491.56
2019-01-04T05:36:19.614Z,101492.48
2019-01-04T05:38:49.727Z,101480.90
2019-01-04T05:41:20.472Z,101482.96
2019-01-04T05:43:50.969Z,101479.30
2019-01-04T05:46:21.164Z,101488.95
2019-01-04T05:48:51.288Z,101475.16
2019-01-04T05:51:21.409Z,101470.77
2019-01-04T05:53:51.512Z,101402.27
2019-01-04T05:56:21.988Z,101472.88
2019-01-04T05:58:52.096Z,101460.02
2019-01-04T06:01:23.845Z,101461.62
2019-01-04T06:03:53.945Z,101454.42
2019-01-04T06:06:24.414Z,101449.52
2019-01-04T06:08:54.517Z,101442.41
2019-01-04T06:11:25.282Z,101438.88
2019-01-04T06:13:55.389Z,101434.02
2019-01-04T06:16:25.548Z,101430.97
2019-01-04T06:18:55.643Z,101427.95
2019-01-04T06:21:25.789Z,101422.22
2019-01-04T06:23:55.909Z,101428.59
2019-01-04T06:26:26.394Z,101427.81
2019-01-04T06:28:56.595Z,101425.25
2019-01-04T06:31:27.044Z,101425.75
2019-01-04T06:33:57.180Z,101422.87
2019-01-04T06:36:27.385Z,101417.47
2019-01-04T06:38:57.510Z,101420.25
2019-01-04T06:41:28.577Z,101413.61
2019-01-04T06:43:58.733Z,101409.95
2019-01-04T06:46:28.860Z,101408.30
2019-01-04T06:48:58.978Z,101400.76
2019-01-04T06:51:29.114Z,101401.02
2019-01-04T06:53:59.220Z,101400.79
2019-01-04T06:56:29.354Z,101408.34
2019-01-04T06:59:00.476Z,101403.50
2019-01-04T07:01:31.438Z,101400.79
2019-01-04T07:04:01.549Z,101395.30
2019-01-04T07:06:32.022Z,101398.92
2019-01-04T07:09:02.197Z,101400.19
2019-01-04T07:11:32.733Z,101390.69
2019-01-04T07:14:02.845Z,101390.23
2019-01-04T07:16:33.333Z,101393.57
2019-01-04T07:19:03.448Z,101387.25
2019-01-04T07:21:33.927Z,101370.06
2019-01-04T07:24:04.113Z,101377.12
2019-01-04T07:26:34.252Z,101376.47
2019-01-04T07:29:04.357Z,101378.75
2019-01-04T07:31:34.498Z,101374.19
2019-01-04T07:34:04.620Z,101367.72
2019-01-04T07:36:34.748Z,101365.63
2019-01-04T07:39:07.140Z,101368.70
2019-01-04T07:41:37.266Z,101365.79
2019-01-04T07:44:07.392Z,101361.80
2019-01-04T07:46:37.514Z,101364.24
2019-01-04T07:49:07.645Z,101368.23
2019-01-04T07:51:37.772Z,101361.08
2019-01-04T07:54:07.892Z,101364.04
2019-01-04T07:56:38.013Z,101365.01
2019-01-04T07:59:08.125Z,101355.95
2019-01-04T08:01:38.315Z,101367.20
2019-01-04T08:04:08.430Z,101362.14
2019-01-04T08:06:38.904Z,101357.59
2019-01-04T08:09:09.338Z,101355.75
2019-01-04T08:11:39.798Z,101363.53
2019-01-04T08:14:09.909Z,101353.81
2019-01-04T08:16:40.061Z,101359.84
2019-01-04T08:19:10.170Z,101358.46
2019-01-04T08:21:40.690Z,101357.59
2019-01-04T08:24:10.790Z,101356.92
2019-01-04T08:26:40.921Z,101361.38
2019-01-04T08:29:11.027Z,101369.20
2019-01-04T08:31:41.505Z,101363.80
2019-01-04T08:34:11.615Z,101370.92
2019-01-04T08:36:41.740Z,101369.64
2019-01-04T08:39:11.936Z,101367.33
2019-01-04T08:41:42.469Z,101367.75
2019-01-04T08:44:12.638Z,101379.25
2019-01-04T08:46:44.942Z,101377.11
2019-01-04T08:49:15.050Z,101380.63
2019-01-04T08:51:45.237Z,101381.91
2019-01-04T08:54:15.341Z,101376.08
2019-01-04T08:56:45.474Z,101376.77
2019-01-04T08:59:15.728Z,101371.09
2019-01-04T09:01:46.278Z,101365.08
2019-01-04T09:04:16.785Z,101354.34
2019-01-04T09:06:46.971Z,101350.81
2019-01-04T09:09:17.115Z,101352.95
2019-01-04T09:11:47.670Z,101355.10
2019-01-04T09:14:17.842Z,101344.41
2019-01-04T09:16:48.320Z,101349.00
2019-01-04T09:19:18.420Z,101343.00
2019-01-04T09:21:48.677Z,101336.40
2019-01-04T09:24:18.770Z,101332.76
2019-01-04T09:26:48.904Z,101331.76
2019-01-04T09:29:19.044Z,101326.62
2019-01-04T09:31:49.171Z,101321.13
2019-01-04T09:34:19.370Z,101328.08
2019-01-04T09:36:49.527Z,101311.59
2019-01-04T09:39:19.869Z,101309.11
2019-01-04T09:42:04.786Z,101312.17
2019-01-04T09:44:34.975Z,101309.11
2019-01-04T09:47:05.143Z,101309.45
2019-01-04T09:49:35.246Z,101304.80
2019-01-04T09:52:05.410Z,101296.23
2019-01-04T09:54:38.466Z,101293.80
2019-01-04T09:57:08.982Z,101288.48
2019-01-04T09:59:40.401Z,101289.87
2019-01-04T10:02:10.641Z,101286.88
2019-01-04T10:04:40.835Z,101282.95
2019-01-04T10:07:11.083Z,101283.12
2019-01-04T10:09:41.180Z,101289.43
2019-01-04T10:12:11.317Z,101274.61
2019-01-04T10:14:42.382Z,101263.09
2019-01-04T10:17:12.893Z,101274.67
2019-01-04T10:19:42.990Z,101266.10
2019-01-04T10:22:13.229Z,101251.06
2019-01-04T10:24:43.486Z,101247.09
2019-01-04T10:27:13.893Z,101232.69
2019-01-04T10:29:44.028Z,101236.02
2019-01-04T10:32:14.255Z,101232.11
2019-01-04T10:34:44.365Z,101225.86
2019-01-04T10:37:14.497Z,101226.59
2019-01-04T10:39:44.719Z,101217.69
2019-01-04T10:42:15.417Z,101214.27
2019-01-04T10:44:46.433Z,101208.30
2019-01-04T10:47:16.637Z,101198.75
2019-01-04T10:49:47.453Z,101190.48
2019-01-04T10:52:17.569Z,101196.15
2019-01-04T10:54:47.672Z,101191.12
2019-01-04T10:57:17.812Z,101179.43
2019-01-04T10:59:48.719Z,101184.00
2019-01-04T11:02:19.994Z,101174.23
2019-01-04T11:04:50.100Z,101171.28
2019-01-04T11:07:20.245Z,101164.56
2019-01-04T11:09:50.347Z,101166.41
2019-01-04T11:12:20.483Z,101090.78
2019-01-04T11:14:50.589Z,101169.53
2019-01-04T11:17:20.716Z,101168.14
2019-01-04T11:19:50.828Z,101174.39
2019-01-04T11:22:51.997Z,101157.37
2019-01-04T11:25:51.587Z,101155.41
2019-01-04T11:29:18.288Z,101155.87
2019-01-04T11:32:04.684Z,101152.53
2019-01-04T11:35:12.176Z,101153.62
2019-01-04T11:38:23.857Z,101143.78
2019-01-04T11:41:31.484Z,101135.92
2019-01-04T11:44:38.708Z,101130.88
2019-01-04T11:47:33.927Z,101120.22
2019-01-04T11:50:40.908Z,101127.16
2019-01-04T11:53:15.840Z,101118.77
2019-01-04T11:55:45.946Z,100921.75
2019-01-04T11:58:16.107Z,101099.94
2019-01-04T12:00:46.219Z,101097.09
2019-01-04T12:03:16.467Z,101088.78
2019-01-04T12:05:46.587Z,101093.84
2019-01-04T12:08:16.715Z,101091.48
2019-01-04T12:10:46.822Z,101087.95
2019-01-04T12:13:16.968Z,101078.63
2019-01-04T12:15:47.676Z,101080.37
2019-01-04T12:18:18.768Z,101071.44
2019-01-04T12:20:48.875Z,101064.84
2019-01-04T12:23:19.071Z,101052.92
2019-01-04T12:25:49.193Z,101057.32
2019-01-04T12:28:19.314Z,101055.02
2019-01-04T12:30:49.441Z,101051.89
2019-01-04T12:33:19.549Z,101038.70
2019-01-04T12:35:49.648Z,101035.58
2019-01-04T12:38:19.789Z,101023.99
2019-01-04T12:40:49.963Z,101024.86
2019-01-04T12:43:20.064Z,101027.98
2019-01-04T12:45:51.262Z,101022.66
2019-01-04T12:48:21.373Z,101019.53
2019-01-04T12:50:51.486Z,101018.67
2019-01-04T12:53:21.621Z,101022.27
2019-01-04T12:55:51.726Z,101028.05
2019-01-04T12:58:21.873Z,101032.98
2019-01-04T13:00:51.978Z,101025.39
2019-01-04T13:03:22.156Z,101020.94
2019-01-04T13:05:52.271Z,101017.41
2019-01-04T13:08:22.745Z,101006.81
2019-01-04T13:10:52.853Z,100998.49
2019-01-04T13:13:23.589Z,100998.43
2019-01-04T13:15:53.772Z,100993.56
2019-01-04T13:18:23.902Z,100994.10
2019-01-04T13:20:54.073Z,100992.44
2019-01-04T13:23:24.201Z,100996.50
2019-01-04T13:25:54.307Z,101001.02
2019-01-04T13:28:24.716Z,100999.75
2019-01-04T13:30:55.798Z,101000.63
2019-01-04T13:33:25.923Z,100998.42
2019-01-04T13:35:56.456Z,100988.64
2019-01-04T13:38:26.586Z,100974.53
2019-01-04T13:40:56.702Z,100975.92
2019-01-04T13:43:26.805Z,100973.80
2019-01-04T13:45:56.939Z,100971.14
2019-01-04T13:48:27.080Z,100975.99
2019-01-04T13:50:57.221Z,100972.00
2019-01-04T13:53:27.343Z,100966.55
2019-01-04T13:55:57.474Z,100959.22
2019-01-04T13:58:27.658Z,100959.95
2019-01-04T14:00:57.797Z,100964.54
2019-01-04T14:03:28.328Z,100964.08
2019-01-04T14:05:58.460Z,100957.95
2019-01-04T14:08:28.571Z,100964.01
2019-01-04T14:10:58.790Z,100952.42
2019-01-04T14:13:28.898Z,100950.02
2019-01-04T14:15:59.046Z,100950.55
2019-01-04T14:18:29.168Z,100951.30
2019-01-04T14:20:59.283Z,100943.04
2019-01-04T14:23:30.076Z,100940.52
2019-01-04T14:26:00.205Z,100944.17
2019-01-04T14:28:30.318Z,100940.91
2019-01-04T14:31:00.453Z,100930.14
2019-01-04T14:33:30.561Z,100927.80
2019-01-04T14:36:00.736Z,100936.85
2019-01-04T14:38:30.783Z,100929.86
2019-01-04T14:41:00.906Z,100923.81
2019-01-04T14:43:31.019Z,100926.34
2019-01-04T14:46:01.252Z,100930.20
2019-01-04T14:48:31.373Z,100919.55
2019-01-04T14:51:01.492Z,100914.73
2019-01-04T14:53:31.605Z,100910.94
2019-01-04T14:56:02.338Z,100911.94
2019-01-04T14:58:32.441Z,100917.66
2019-01-04T15:01:04.247Z,100920.86
2019-01-04T15:03:34.405Z,100922.13
2019-01-04T15:06:04.566Z,100914.07
2019-01-04T15:08:34.681Z,100917.53
2019-01-04T15:11:05.236Z,100919.52
2019-01-04T15:13:36.732Z,100921.84
2019-01-04T15:16:06.843Z,100912.80
2019-01-04T15:18:36.973Z,100905.48
2019-01-04T15:21:07.093Z,100906.48
2019-01-04T15:23:37.201Z,100911.94
2019-01-04T15:26:07.330Z,100914.59
2019-01-04T15:28:37.432Z,100915.53
2019-01-04T15:31:07.564Z,100909.64
2019-01-04T15:33:37.671Z,100913.62
2019-01-04T15:36:07.788Z,100897.27
2019-01-04T15:38:37.896Z,100898.90
2019-01-04T15:41:08.032Z,100899.83
2019-01-04T15:43:38.173Z,100891.84
2019-01-04T15:46:08.306Z,100891.19
2019-01-04T15:48:38.466Z,100895.97
2019-01-04T15:51:08.580Z,100891.52
2019-01-04T15:53:38.712Z,100892.45
2019-01-04T15:56:08.868Z,100891.52
2019-01-04T15:58:38.975Z,100889.25
2019-01-04T16:01:09.104Z,100889.39
2019-01-04T16:03:39.320Z,100882.94
2019-01-04T16:06:09.594Z,100887.45
2019-01-04T16:08:39.765Z,100887.95
2019-01-04T16:11:09.934Z,100887.66
2019-01-04T16:13:40.136Z,100884.59
2019-01-04T16:16:10.691Z,100880.41
2019-01-04T16:18:40.812Z,100880.94
2019-01-04T16:21:10.952Z,100878.41
2019-01-04T16:23:41.073Z,100878.41
2019-01-04T16:26:11.220Z,100885.00
2019-01-04T16:28:42.281Z,100882.87
2019-01-04T16:31:12.420Z,100878.08
2019-01-04T16:33:42.772Z,100885.27
2019-01-04T16:36:13.002Z,100883.73
2019-01-04T16:38:43.341Z,100885.27
2019-01-04T16:41:13.531Z,100875.95
2019-01-04T16:43:43.636Z,100869.03
2019-01-04T16:46:14.037Z,100867.30
2019-01-04T16:48:44.247Z,100870.69
2019-01-04T16:51:15.473Z,100866.23
2019-01-04T16:53:45.580Z,100866.43
2019-01-04T16:56:15.701Z,100860.58
2019-01-04T16:58:45.809Z,100865.50
2019-01-04T17:01:15.934Z,100870.03
2019-01-04T17:03:47.618Z,100855.78
2019-01-04T17:06:17.771Z,100858.72
2019-01-04T17:08:47.886Z,100856.73
2019-01-04T17:11:18.092Z,100863.14
2019-01-04T17:13:48.196Z,100859.09
2019-01-04T17:16:18.391Z,100864.67
2019-01-04T17:18:48.497Z,100862.88
2019-01-04T17:21:18.911Z,100869.33
2019-01-04T17:23:49.029Z,100870.33
2019-01-04T17:26:19.457Z,100871.58
2019-01-04T17:28:49.554Z,100876.58
2019-01-04T17:31:19.693Z,100870.98
2019-01-04T17:33:50.763Z,100866.53
2019-01-04T17:36:21.972Z,100863.20
2019-01-04T17:38:52.086Z,100861.41
2019-01-04T17:41:22.237Z,100864.73
2019-01-04T17:43:52.366Z,100873.32
2019-01-04T17:46:22.530Z,100872.85
2019-01-04T17:48:52.638Z,100870.39
2019-01-04T17:51:22.762Z,100874.78
2019-01-04T17:53:52.869Z,100873.72
2019-01-04T17:56:23.324Z,100874.25
2019-01-04T17:58:53.658Z,100882.09
2019-01-04T18:01:23.789Z,100885.89
2019-01-04T18:03:54.033Z,100882.76
2019-01-04T18:06:24.179Z,100884.23
2019-01-04T18:08:54.318Z,100889.88
2019-01-04T18:11:24.786Z,100898.37
2019-01-04T18:13:54.925Z,100902.23
2019-01-04T18:16:25.129Z,100898.03
2019-01-04T18:18:55.452Z,100896.23
2019-01-04T18:21:25.582Z,100895.58
2019-01-04T18:23:55.805Z,100888.78
2019-01-04T18:26:25.943Z,100889.25
2019-01-04T18:28:56.986Z,100880.34
2019-01-04T18:31:27.165Z,100882.00
2019-01-04T18:33:57.302Z,100885.31
2019-01-04T18:36:27.575Z,100878.89
2019-01-04T18:38:57.743Z,100877.48
2019-01-04T18:41:28.951Z,100800.56
2019-01-04T18:43:59.114Z,100876.42
2019-01-04T18:46:29.407Z,100881.61
2019-01-04T18:48:59.605Z,100877.61
2019-01-04T18:51:29.734Z,100872.29
2019-01-04T18:53:59.867Z,100878.94
2019-01-04T18:56:30.006Z,100885.46
2019-01-04T18:59:00.132Z,100880.80
2019-01-04T19:01:30.279Z,100885.33
2019-01-04T19:04:01.041Z,100888.25
2019-01-04T19:06:31.340Z,100890.51
2019-01-04T19:09:01.495Z,100895.23
2019-01-04T19:11:33.244Z,100894.56
2019-01-04T19:14:03.385Z,100889.98
2019-01-04T19:16:33.596Z,100887.11
2019-01-04T19:19:03.921Z,100882.65
2019-01-04T19:21:34.149Z,100877.18
2019-01-04T19:24:04.302Z,100880.10
2019-01-04T19:26:34.462Z,100876.11
2019-01-04T19:29:04.590Z,100874.23
2019-01-04T19:31:34.735Z,100874.95
2019-01-04T19:34:04.902Z,100875.35
2019-01-04T19:36:35.047Z,100875.67
2019-01-04T19:39:07.648Z,100869.95
2019-01-04T19:41:37.785Z,100877.69
2019-01-04T19:44:07.932Z,100886.73
2019-01-04T19:46:38.194Z,100882.73
2019-01-04T19:49:08.297Z,100889.53
2019-01-04T19:51:38.617Z,100885.24
2019-01-04T19:54:10.109Z,100885.34
2019-01-04T19:56:40.267Z,100891.55
2019-01-04T19:59:10.406Z,100889.13
2019-01-04T20:01:41.016Z,100894.12
2019-01-04T20:04:11.135Z,100891.95
2019-01-04T20:07:33.131Z,100895.00
2019-01-04T20:11:17.660Z,100895.80
2019-01-04T20:14:35.124Z,100892.88
2019-01-04T20:17:33.243Z,100894.53
2019-01-04T20:20:20.996Z,100886.48
2019-01-04T20:23:15.874Z,100883.34
2019-01-04T20:26:02.137Z,100888.28
2019-01-04T20:28:50.187Z,100887.09
2019-01-04T20:31:39.310Z,100887.49
2019-01-04T20:34:39.251Z,100878.63
2019-01-04T20:37:26.978Z,100877.22
2019-01-04T20:40:14.843Z,100872.67
2019-01-04T20:43:03.937Z,100876.83
2019-01-04T20:45:56.580Z,100880.95
2019-01-04T20:48:45.675Z,100873.19
2019-01-04T20:51:43.578Z,100868.48
2019-01-04T20:54:38.670Z,100877.36
2019-01-04T20:57:28.497Z,100885.28
2019-01-04T21:00:30.318Z,100886.70
2019-01-04T21:03:31.525Z,100889.60
2019-01-04T21:06:23.528Z,100890.62
2019-01-04T21:09:11.306Z,100889.60
2019-01-04T21:11:59.442Z,100890.86
2019-01-04T21:14:47.228Z,100890.23
2019-01-04T21:17:45.684Z,100888.81
2019-01-04T21:20:34.764Z,100886.21
2019-01-04T21:23:17.541Z,100888.26
2019-01-04T21:26:06.497Z,100889.44
2019-01-04T21:29:13.841Z,100885.44
2019-01-04T21:32:02.906Z,100875.62
2019-01-04T21:34:54.911Z,100888.42
2019-01-04T21:37:49.779Z,100888.42
2019-01-04T21:40:54.320Z,100891.02
2019-01-04T21:43:49.639Z,100899.48
2019-01-04T21:46:48.517Z,100892.73
2019-01-04T21:49:43.495Z,100899.64
2019-01-04T21:52:42.919Z,100890.62
2019-01-04T21:55:33.299Z,100898.92
2019-01-04T21:58:25.422Z,100896.97
2019-01-04T22:01:17.904Z,100899.79
2019-01-04T22:04:05.814Z,100903.16
2019-01-04T22:06:53.552Z,100906.95
2019-01-04T22:09:42.758Z,100910.95
2019-01-04T22:12:25.277Z,100896.28
2019-01-04T22:15:17.423Z,100902.95
2019-01-04T22:18:05.408Z,100905.23
2019-01-04T22:21:00.709Z,100899.97
2019-01-04T22:23:48.592Z,100906.63
2019-01-04T22:26:36.272Z,100912.76
2019-01-04T22:29:34.445Z,100922.56
2019-01-04T22:32:26.099Z,100933.75
2019-01-04T22:35:24.361Z,100932.42
2019-01-04T22:38:12.389Z,100922.23
2019-01-04T22:41:08.011Z,100917.62
2019-01-04T22:44:00.162Z,100923.34
2019-01-04T22:46:53.373Z,100932.85
2019-01-04T22:49:37.288Z,100922.48
2019-01-04T22:52:35.850Z,100927.27
2019-01-04T22:55:27.581Z,100937.00
2019-01-04T22:58:09.345Z,100941.23
2019-01-04T23:00:58.914Z,100949.41
2019-01-04T23:03:49.272Z,100950.74
2019-01-04T23:06:50.001Z,100954.88
2019-01-04T23:09:37.926Z,100954.30
2019-01-04T23:12:24.414Z,100950.25
2019-01-04T23:15:20.018Z,100945.23
2019-01-04T23:18:27.961Z,100942.54
2019-01-04T23:21:52.805Z,100945.13
2019-01-04T23:24:40.262Z,100948.23
2019-01-04T23:27:28.161Z,100948.23
2019-01-04T23:30:20.217Z,100946.51
2019-01-04T23:33:08.093Z,100959.98
2019-01-04T23:36:03.281Z,100953.64
2019-01-04T23:38:52.212Z,100948.71
2019-01-04T23:41:44.477Z,100942.36
2019-01-04T23:44:33.539Z,100949.03
2019-01-04T23:47:22.739Z,100951.70
2019-01-04T23:50:13.889Z,100951.98
2019-01-04T23:53:08.797Z,100952.06
2019-01-04T23:55:56.721Z,100958.43
2019-01-04T23:58:43.560Z,100931.52
